Alfred, NY

2:26 AM EDT on October 26, 2014 (GMT -0400)
Ardachy Farm | Change Station
CLOSE
Current Station
Personal Weather Station
Location: Alfred Station, NY
Elevation: 1877 ft
Nearby Weather Stations

Elev 1877 ft 42.28 °N, 77.77 °W | Updated 4 seconds ago

Partly Cloudy
Partly Cloudy
45.5 °F
Feels Like 46 °F
N
0.0
Wind Variable Wind from West
Gusts 0.0 mph

Today
High -- | Low -- °F
--% Chance of Precip.
Yesterday
High -- | Low -- °F
Precip. -- in
7:36 AM 6:12 PM
Waxing Crescent, 6% visible
Pressure 29.68 in
Visibility 10.0 miles
Clouds Clear
Windchill 46 °F
Dew Point 36 °F
Humidity 69%
Rainfall 0.00 in
Snow Depth Not available.
UV 0 out of 12
Pollen 1.50 out of 12
Ozone Good
PM2.5 Good
Flu Activity Sporadic
METAR KELZ 260556Z AUTO 30013G26KT 10SM CLR 08/02 A2967 RMK AO2 PK WND 31026/0550 SLP048 60000 T00830017 10117 20083 51012

More Conditions Fewer Conditions

Pressure 29.68 in
Visibility 10.0 miles
Clouds Clear
Windchill 46 °F
Dew Point 36 °F
Humidity 69%
Rainfall 0.00 in
Snow Depth Not available.
UV 0 out of 12
Pollen 1.50 out of 12
Ozone Good
PM2.5 Good
Flu Activity Sporadic
METAR KELZ 260556Z AUTO 30013G26KT 10SM CLR 08/02 A2967 RMK AO2 PK WND 31026/0550 SLP048 60000 T00830017 10117 20083 51012

More Conditions Fewer Conditions

10-Day Weather Forecast

Almanac

Astronomy

Oct. 26, 2014 Rise Set
Actual Time 7:36 AM EDT 6:12 PM EDT
Civil Twilight 7:08 AM EDT 6:41 PM EDT
Nautical Twilight 6:35 AM EDT 7:14 PM EDT
Astronomical Twilight 6:02 AM EDT 7:46 PM EDT
Moon 10:14 AM EDT 8:20 PM EDT
Length of Visible Light 11h 33m
Length of Day
10h 35m
Tomorrow will be 2m 36s shorter.
Waxing Crescent, 6% of the Moon is Illuminated
Today
Waxing Crescent
Oct 30
First Quarter
Nov 6
Full
Nov 14
Last Quarter
Nov 22
New

Today's Extremes

State Highs State Lows

Community

WunderPhotos

Upload Photos

1,765,114 photos uploaded!

Nearby

Air Quality

  Air Quality AQ Index Pollutant
Yesterday Good
PM2.5
Yesterday Good
OZONE
Current Good
PM2.5
Current Good
OZONE
Sunday Good
PM2.5
Monday Good
PM2.5

Snow Depth

Station Depth Elevation
No new snow has been reported.

Earthquake Activity

City Distance Mag. Time & Date
No recent earthquake activity has been reported nearby.
Minimum magnitude displayed is 2.5.

Coastal Water Temperatures

Place Temperature
No Stations Reporting

Nearby Weather Stations